createdAt,value
2023-01-03T00:02:22.016Z,99310.75
2023-01-03T00:07:36.339Z,99242.75
2023-01-03T00:12:41.325Z,99285.66
2023-01-03T00:17:43.729Z,99265.31
2023-01-03T00:22:45.999Z,99243.38
2023-01-03T00:27:48.316Z,99191.84
2023-01-03T00:32:50.633Z,99243.53
2023-01-03T00:37:54.095Z,99245.41
2023-01-03T00:48:31.506Z,99245.94
2023-01-03T00:53:34.244Z,99244.19
2023-01-03T00:58:37.111Z,99254.34
2023-01-03T01:03:42.609Z,99195.81
2023-01-03T01:14:02.317Z,99165.69
2023-01-03T01:19:04.666Z,99165.19
2023-01-03T01:24:06.956Z,99188.53
2023-01-03T01:29:13.341Z,99158.13
2023-01-03T01:34:16.369Z,99122.41
2023-01-03T01:44:59.419Z,99169.69
2023-01-03T01:50:26.299Z,99129.41
2023-01-03T01:55:45.243Z,99138.31
2023-01-03T02:00:47.709Z,99114.69
2023-01-03T02:05:52.931Z,99104.44
2023-01-03T02:11:24.487Z,99049.84
2023-01-03T02:16:39.149Z,99075.47
2023-01-03T02:22:06.059Z,99067.34
2023-01-03T02:27:39.425Z,99056.41
2023-01-03T02:32:53.834Z,99055.47
2023-01-03T02:38:22.949Z,99039.34
2023-01-03T02:43:38.087Z,99038.34
2023-01-03T02:54:29.099Z,99000.41
2023-01-03T02:59:39.199Z,98931.59
2023-01-03T03:04:43.084Z,98979.72
2023-01-03T03:10:03.884Z,98950.41
2023-01-03T03:20:42.041Z,98950.34
2023-01-03T03:31:34.437Z,98957.63
2023-01-03T03:36:41.009Z,98960.34
2023-01-03T03:42:08.078Z,98876.19
2023-01-03T03:47:38.289Z,98747.13
2023-01-03T03:52:45.130Z,98885.59
2023-01-03T03:57:51.709Z,98911.28
2023-01-03T04:02:54.676Z,98814.44
2023-01-03T04:07:56.943Z,98815.00
2023-01-03T04:12:59.306Z,98822.63
2023-01-03T04:23:20.698Z,98793.16
2023-01-03T04:28:22.943Z,98770.75
2023-01-03T04:33:25.169Z,98780.34
2023-01-03T04:38:27.373Z,98775.59
2023-01-03T04:43:48.004Z,98726.41
2023-01-03T04:48:50.234Z,98743.06
2023-01-03T04:53:52.644Z,98727.50
2023-01-03T04:58:55.535Z,98732.00
2023-01-03T05:04:00.166Z,98723.22
2023-01-03T05:09:02.502Z,98664.34
2023-01-03T05:14:08.003Z,98646.19
2023-01-03T05:19:14.944Z,98641.09
2023-01-03T05:35:09.082Z,98595.81
2023-01-03T05:40:11.522Z,98621.44
2023-01-03T05:45:15.784Z,98509.13
2023-01-03T05:50:18.495Z,98581.00
2023-01-03T05:55:20.734Z,98569.84
2023-01-03T06:00:23.220Z,98559.09
2023-01-03T06:05:25.531Z,98513.25
2023-01-03T06:10:28.117Z,98499.91
2023-01-03T06:20:46.952Z,98474.53
2023-01-03T06:25:49.197Z,98428.50
2023-01-03T06:30:51.611Z,98483.19
2023-01-03T06:35:53.889Z,98494.56
2023-01-03T06:40:56.150Z,98496.47
2023-01-03T06:46:18.470Z,98513.34
2023-01-03T06:56:57.934Z,98420.03
2023-01-03T07:02:00.358Z,98479.34
2023-01-03T07:07:02.719Z,98419.59
2023-01-03T07:12:25.157Z,98435.66
2023-01-03T07:17:27.447Z,98440.31
2023-01-03T07:27:46.027Z,98352.94
2023-01-03T07:32:49.034Z,98374.94
2023-01-03T07:37:51.311Z,98344.03
2023-01-03T07:43:11.863Z,98307.78
2023-01-03T07:48:14.976Z,98348.13
2023-01-03T07:53:17.280Z,98304.97
2023-01-03T07:58:19.808Z,98317.25
2023-01-03T08:03:22.324Z,98317.59
2023-01-03T08:08:24.582Z,98305.88
2023-01-03T08:13:26.935Z,98303.25
2023-01-03T08:18:29.463Z,98288.81
2023-01-03T08:23:31.952Z,98282.81
2023-01-03T08:28:34.998Z,98290.22
2023-01-03T08:33:42.487Z,98263.41
2023-01-03T08:38:50.479Z,98226.56
2023-01-03T08:43:53.511Z,98228.31
2023-01-03T08:48:56.513Z,98221.47
2023-01-03T08:53:58.989Z,98245.16
2023-01-03T08:59:01.614Z,98222.28
2023-01-03T09:04:06.129Z,98187.63
2023-01-03T09:09:09.627Z,98213.06
2023-01-03T09:14:11.974Z,98209.53
2023-01-03T09:19:14.316Z,98159.47
2023-01-03T09:24:16.664Z,98192.63
2023-01-03T09:29:19.237Z,98073.16
2023-01-03T09:34:21.496Z,98076.84
2023-01-03T09:39:26.880Z,98064.03
2023-01-03T09:44:29.728Z,98091.69
2023-01-03T09:49:57.545Z,98104.53
2023-01-03T09:55:21.642Z,98056.19
2023-01-03T10:00:50.101Z,98094.41
2023-01-03T10:06:26.721Z,98109.19
2023-01-03T10:12:11.050Z,98104.06
2023-01-03T10:17:48.609Z,98081.09
2023-01-03T10:22:52.482Z,98044.88
2023-01-03T10:28:02.293Z,97990.25
2023-01-03T10:33:23.657Z,98048.75
2023-01-03T10:38:26.471Z,97978.59
2023-01-03T10:43:33.584Z,98039.38
2023-01-03T10:49:25.410Z,98019.47
2023-01-03T10:54:19.718Z,98022.28
2023-01-03T10:59:28.089Z,98023.31
2023-01-03T11:04:32.180Z,97936.03
2023-01-03T11:09:51.273Z,97987.31
2023-01-03T11:14:59.419Z,97972.63
2023-01-03T11:20:02.733Z,97937.34
2023-01-03T11:25:16.371Z,97971.25
2023-01-03T11:30:40.318Z,97952.16
2023-01-03T11:35:51.253Z,97925.44
2023-01-03T11:41:12.420Z,97964.53
2023-01-03T11:46:49.577Z,97909.28
2023-01-03T11:51:58.668Z,97966.34
2023-01-03T11:57:29.284Z,97909.38
2023-01-03T12:02:45.253Z,97940.69
2023-01-03T12:07:58.025Z,97923.38
2023-01-03T12:13:07.108Z,97942.47
2023-01-03T12:18:29.968Z,97869.09
2023-01-03T12:24:14.986Z,97929.72
2023-01-03T12:29:24.362Z,97916.06
2023-01-03T12:34:35.888Z,97878.06
2023-01-03T12:39:55.726Z,97924.75
2023-01-03T12:45:00.836Z,97924.09
2023-01-03T12:50:19.341Z,97938.56
2023-01-03T12:55:40.406Z,97925.78
2023-01-03T13:00:56.433Z,97942.03
2023-01-03T13:06:02.180Z,97904.94
2023-01-03T13:11:08.515Z,97893.06
2023-01-03T13:16:31.208Z,97934.56
2023-01-03T13:21:55.571Z,97937.13
2023-01-03T13:27:22.964Z,97925.91
2023-01-03T13:32:36.279Z,97895.63
2023-01-03T13:37:50.753Z,97938.09
2023-01-03T13:43:33.399Z,97940.69
2023-01-03T13:48:40.434Z,97915.63
2023-01-03T13:54:13.968Z,97934.84
2023-01-03T13:59:19.236Z,97929.69
2023-01-03T14:04:33.637Z,97931.41
2023-01-03T14:10:18.505Z,97884.81
2023-01-03T14:15:26.619Z,97898.56
2023-01-03T14:20:33.094Z,97890.94
2023-01-03T14:25:38.327Z,97924.88
2023-01-03T14:30:41.187Z,97891.13
2023-01-03T14:35:44.962Z,97831.59
2023-01-03T14:40:48.645Z,97908.44
2023-01-03T14:45:56.007Z,97884.31
2023-01-03T14:51:02.955Z,97881.59
2023-01-03T14:56:09.885Z,97911.31
2023-01-03T15:01:13.719Z,97878.13
2023-01-03T15:06:28.874Z,97909.44
2023-01-03T15:11:34.274Z,97896.56
2023-01-03T15:16:41.323Z,97909.56
2023-01-03T15:21:43.828Z,97860.34
2023-01-03T15:26:51.067Z,97896.78
2023-01-03T15:31:58.503Z,97879.53
2023-01-03T15:37:11.849Z,97876.03
2023-01-03T15:42:46.805Z,97899.47
2023-01-03T15:47:52.857Z,97834.75
2023-01-03T15:52:55.329Z,97877.03
2023-01-03T15:58:00.942Z,97855.59
2023-01-03T16:03:03.480Z,97843.38
2023-01-03T16:08:22.132Z,97784.75
2023-01-03T16:13:26.527Z,97854.00
2023-01-03T16:18:38.078Z,97840.34
2023-01-03T16:23:40.676Z,97836.03
2023-01-03T16:28:45.971Z,97826.59
2023-01-03T16:33:49.727Z,97810.31
2023-01-03T16:38:52.230Z,97832.00
2023-01-03T16:43:57.887Z,97769.81
2023-01-03T16:49:00.340Z,97793.19
2023-01-03T16:54:05.485Z,97835.53
2023-01-03T16:59:15.386Z,97782.09
2023-01-03T17:04:22.198Z,97788.19
2023-01-03T17:09:32.268Z,97809.03
2023-01-03T17:14:37.309Z,97801.31
2023-01-03T17:25:02.037Z,97790.13
2023-01-03T17:30:07.333Z,97754.00
2023-01-03T17:35:13.329Z,97759.19
2023-01-03T17:40:31.046Z,97733.41
2023-01-03T17:45:54.591Z,97748.03
2023-01-03T17:50:57.386Z,97748.03
2023-01-03T17:56:02.004Z,97711.06
2023-01-03T18:01:06.148Z,97750.81
2023-01-03T18:06:16.474Z,97724.06
2023-01-03T18:11:20.957Z,97732.72
2023-01-03T18:16:23.821Z,97730.09
2023-01-03T18:21:28.669Z,97695.75
2023-01-03T18:26:40.162Z,97719.06
2023-01-03T18:31:44.009Z,97728.56
2023-01-03T18:36:51.079Z,97695.78
2023-01-03T18:41:53.575Z,97664.75
2023-01-03T18:46:56.075Z,97683.84
2023-01-03T18:51:58.500Z,97656.28
2023-01-03T18:57:00.805Z,97663.16
2023-01-03T19:02:03.337Z,97666.66
2023-01-03T19:07:05.803Z,97637.31
2023-01-03T19:12:14.691Z,97694.19
2023-01-03T19:17:20.548Z,97710.53
2023-01-03T19:22:29.649Z,97713.13
2023-01-03T19:27:44.982Z,97698.47
2023-01-03T19:32:53.104Z,97653.56
2023-01-03T19:37:55.576Z,97674.28
2023-01-03T19:42:58.848Z,97671.66
2023-01-03T19:48:04.420Z,97688.09
2023-01-03T19:53:10.009Z,97656.06
2023-01-03T19:58:21.637Z,97694.06
2023-01-03T20:03:39.353Z,97713.81
2023-01-03T20:08:42.033Z,97649.09
2023-01-03T20:13:46.448Z,97699.91
2023-01-03T20:18:49.254Z,97674.00
2023-01-03T20:23:57.037Z,97736.06
2023-01-03T20:29:00.267Z,97740.31
2023-01-03T20:34:10.074Z,97672.94
2023-01-03T20:39:26.886Z,97756.69
2023-01-03T20:44:30.574Z,97669.41
2023-01-03T20:49:32.945Z,97746.22
2023-01-03T20:54:36.040Z,97684.91
2023-01-03T20:59:38.379Z,97732.28
2023-01-03T21:04:40.888Z,97702.00
2023-01-03T21:09:54.107Z,97698.50
2023-01-03T21:14:59.888Z,97779.59
2023-01-03T21:20:02.336Z,97750.06
2023-01-03T21:25:20.587Z,97783.78
2023-01-03T21:30:23.840Z,97743.91
2023-01-03T21:35:26.772Z,97743.91
2023-01-03T21:40:30.529Z,97769.66
2023-01-03T21:45:40.919Z,97808.53
2023-01-03T21:50:44.949Z,97775.69
2023-01-03T21:55:48.070Z,97785.06
2023-01-03T22:00:50.436Z,97801.44
2023-01-03T22:05:52.926Z,97756.38
2023-01-03T22:10:55.266Z,97784.88
2023-01-03T22:16:00.668Z,97791.69
2023-01-03T22:21:08.447Z,97826.19
2023-01-03T22:26:13.796Z,97833.91
2023-01-03T22:31:19.020Z,97840.72
2023-01-03T22:36:21.658Z,97803.44
2023-01-03T22:41:24.722Z,97791.44
2023-01-03T22:46:27.318Z,97785.31
2023-01-03T22:51:29.805Z,97842.25
2023-01-03T22:56:32.157Z,97826.59
2023-01-03T23:01:34.597Z,97826.50
2023-01-03T23:06:37.015Z,97879.16
2023-01-03T23:11:59.477Z,97857.44
2023-01-03T23:17:20.787Z,97880.84
2023-01-03T23:22:23.388Z,97868.66
2023-01-03T23:27:27.610Z,97838.44
2023-01-03T23:32:29.973Z,97849.59
2023-01-03T23:37:32.265Z,97826.13
2023-01-03T23:42:34.508Z,97883.09
2023-01-03T23:47:36.822Z,97897.78
2023-01-03T23:52:39.224Z,97841.53
2023-01-03T23:57:41.574Z,97879.47
